sensor_id;sensor_type;location;lat;lon;timestamp;pressure;altitude;pressure_sealevel;temperature;humidity
44148;BME280;29810;55.848;37.368;2022-09-02T00:00:04;98565.78;;;7.72;80.80
44148;BME280;29810;55.848;37.368;2022-09-02T00:03:10;98572.56;;;7.76;80.91
44148;BME280;29810;55.848;37.368;2022-09-02T00:06:13;98571.81;;;7.73;80.80
44148;BME280;29810;55.848;37.368;2022-09-02T00:09:18;98572.66;;;7.73;80.62
44148;BME280;29810;55.848;37.368;2022-09-02T00:12:20;98581.88;;;7.82;80.55
44148;BME280;29810;55.848;37.368;2022-09-02T00:15:21;98570.66;;;7.82;79.66
44148;BME280;29810;55.848;37.368;2022-09-02T00:18:23;98577.06;;;7.71;79.85
44148;BME280;29810;55.848;37.368;2022-09-02T00:21:26;98571.19;;;7.66;80.21
44148;BME280;29810;55.848;37.368;2022-09-02T00:24:28;98583.47;;;7.61;80.44
44148;BME280;29810;55.848;37.368;2022-09-02T00:27:30;98584.22;;;7.65;80.56
44148;BME280;29810;55.848;37.368;2022-09-02T00:30:33;98540.22;;;7.36;80.30
44148;BME280;29810;55.848;37.368;2022-09-02T00:33:35;98588.66;;;7.61;80.01
44148;BME280;29810;55.848;37.368;2022-09-02T00:36:38;98567.59;;;7.45;80.11
44148;BME280;29810;55.848;37.368;2022-09-02T00:39:39;98584.94;;;7.43;80.46
44148;BME280;29810;55.848;37.368;2022-09-02T00:42:41;98577.44;;;7.35;80.41
44148;BME280;29810;55.848;37.368;2022-09-02T00:45:42;98580.66;;;7.42;80.06
44148;BME280;29810;55.848;37.368;2022-09-02T00:49:23;98581.34;;;7.47;79.81
44148;BME280;29810;55.848;37.368;2022-09-02T00:52:36;98569.13;;;7.51;79.77
44148;BME280;29810;55.848;37.368;2022-09-02T00:55:43;98581.97;;;7.54;79.62
44148;BME280;29810;55.848;37.368;2022-09-02T00:58:47;98587.28;;;7.51;79.67
44148;BME280;29810;55.848;37.368;2022-09-02T01:01:51;98584.00;;;7.45;79.70
44148;BME280;29810;55.848;37.368;2022-09-02T01:04:52;98571.28;;;7.38;79.41
44148;BME280;29810;55.848;37.368;2022-09-02T01:07:57;98583.25;;;7.42;79.63
44148;BME280;29810;55.848;37.368;2022-09-02T01:11:00;98597.91;;;7.43;80.08
44148;BME280;29810;55.848;37.368;2022-09-02T01:14:03;98580.28;;;7.27;80.12
44148;BME280;29810;55.848;37.368;2022-09-02T01:17:05;98588.75;;;7.33;80.21
44148;BME280;29810;55.848;37.368;2022-09-02T01:20:11;98521.25;;;6.84;80.85
44148;BME280;29810;55.848;37.368;2022-09-02T01:23:14;98562.75;;;7.09;81.26
44148;BME280;29810;55.848;37.368;2022-09-02T01:26:18;98597.34;;;7.35;81.01
44148;BME280;29810;55.848;37.368;2022-09-02T01:29:20;98587.84;;;7.34;80.43
44148;BME280;29810;55.848;37.368;2022-09-02T01:32:22;98583.44;;;7.36;80.15
44148;BME280;29810;55.848;37.368;2022-09-02T01:35:25;98590.87;;;7.46;79.60
44148;BME280;29810;55.848;37.368;2022-09-02T01:38:30;98602.00;;;7.50;78.85
44148;BME280;29810;55.848;37.368;2022-09-02T01:41:32;98591.56;;;7.52;77.96
44148;BME280;29810;55.848;37.368;2022-09-02T01:44:35;98554.41;;;7.26;76.82
44148;BME280;29810;55.848;37.368;2022-09-02T01:47:44;98595.31;;;7.43;75.72
44148;BME280;29810;55.848;37.368;2022-09-02T01:50:49;98575.91;;;7.29;75.16
44148;BME280;29810;55.848;37.368;2022-09-02T01:53:51;98599.50;;;7.47;73.80
44148;BME280;29810;55.848;37.368;2022-09-02T01:56:53;98575.94;;;7.28;73.33
44148;BME280;29810;55.848;37.368;2022-09-02T01:59:58;98592.09;;;7.36;73.26
44148;BME280;29810;55.848;37.368;2022-09-02T02:03:02;98589.63;;;7.33;73.01
44148;BME280;29810;55.848;37.368;2022-09-02T02:06:14;98586.59;;;7.19;72.96
44148;BME280;29810;55.848;37.368;2022-09-02T02:09:17;98603.47;;;7.32;72.63
44148;BME280;29810;55.848;37.368;2022-09-02T02:12:20;98610.25;;;7.36;72.39
44148;BME280;29810;55.848;37.368;2022-09-02T02:15:23;98588.09;;;7.26;72.44
44148;BME280;29810;55.848;37.368;2022-09-02T02:18:24;98605.81;;;7.40;72.49
44148;BME280;29810;55.848;37.368;2022-09-02T02:21:27;98603.09;;;7.43;72.48
44148;BME280;29810;55.848;37.368;2022-09-02T02:24:29;98608.44;;;7.38;72.50
44148;BME280;29810;55.848;37.368;2022-09-02T02:27:31;98611.03;;;7.38;72.77
44148;BME280;29810;55.848;37.368;2022-09-02T02:30:34;98596.78;;;7.25;73.07
44148;BME280;29810;55.848;37.368;2022-09-02T02:33:36;98579.81;;;7.15;73.55
44148;BME280;29810;55.848;37.368;2022-09-02T02:36:40;98624.03;;;7.37;74.19
44148;BME280;29810;55.848;37.368;2022-09-02T02:39:42;98621.37;;;7.40;74.78
44148;BME280;29810;55.848;37.368;2022-09-02T02:42:45;98623.16;;;7.38;75.86
44148;BME280;29810;55.848;37.368;2022-09-02T02:45:48;98625.53;;;7.17;78.38
44148;BME280;29810;55.848;37.368;2022-09-02T02:48:52;98606.06;;;7.05;78.96
44148;BME280;29810;55.848;37.368;2022-09-02T02:51:53;98608.59;;;7.07;79.17
44148;BME280;29810;55.848;37.368;2022-09-02T02:54:55;98625.66;;;7.14;79.48
44148;BME280;29810;55.848;37.368;2022-09-02T02:57:57;98579.97;;;6.83;79.58
44148;BME280;29810;55.848;37.368;2022-09-02T03:00:59;98620.00;;;7.01;79.81
44148;BME280;29810;55.848;37.368;2022-09-02T03:04:01;98620.19;;;6.96;80.08
44148;BME280;29810;55.848;37.368;2022-09-02T03:07:03;98639.94;;;6.99;79.87
44148;BME280;29810;55.848;37.368;2022-09-02T03:10:08;98643.75;;;6.87;80.15
44148;BME280;29810;55.848;37.368;2022-09-02T03:13:11;98606.41;;;6.66;79.97
44148;BME280;29810;55.848;37.368;2022-09-02T03:16:16;98649.63;;;6.94;80.00
44148;BME280;29810;55.848;37.368;2022-09-02T03:19:21;98628.13;;;6.90;80.14
44148;BME280;29810;55.848;37.368;2022-09-02T03:22:24;98654.94;;;7.18;79.82
44148;BME280;29810;55.848;37.368;2022-09-02T03:25:28;98659.75;;;7.28;79.70
44148;BME280;29810;55.848;37.368;2022-09-02T03:28:30;98655.16;;;7.37;79.56
44148;BME280;29810;55.848;37.368;2022-09-02T03:31:34;98646.13;;;7.49;79.30
44148;BME280;29810;55.848;37.368;2022-09-02T03:34:36;98654.41;;;7.60;78.96
44148;BME280;29810;55.848;37.368;2022-09-02T03:37:39;98656.75;;;7.68;78.49
44148;BME280;29810;55.848;37.368;2022-09-02T03:40:40;98653.34;;;7.66;77.95
44148;BME280;29810;55.848;37.368;2022-09-02T03:43:42;98652.06;;;7.79;78.00
44148;BME280;29810;55.848;37.368;2022-09-02T03:46:45;98652.00;;;7.81;77.82
44148;BME280;29810;55.848;37.368;2022-09-02T03:49:57;98659.97;;;8.00;77.21
44148;BME280;29810;55.848;37.368;2022-09-02T03:53:03;98660.09;;;7.96;76.67
44148;BME280;29810;55.848;37.368;2022-09-02T03:56:22;98657.06;;;7.84;76.26
44148;BME280;29810;55.848;37.368;2022-09-02T03:59:32;98673.38;;;7.87;76.77
44148;BME280;29810;55.848;37.368;2022-09-02T04:02:39;98670.31;;;8.01;76.31
44148;BME280;29810;55.848;37.368;2022-09-02T04:05:52;98674.66;;;8.01;75.93
44148;BME280;29810;55.848;37.368;2022-09-02T04:08:59;98674.97;;;7.91;76.14
44148;BME280;29810;55.848;37.368;2022-09-02T04:12:10;98683.94;;;8.08;75.75
44148;BME280;29810;55.848;37.368;2022-09-02T04:15:11;98679.59;;;8.32;74.74
44148;BME280;29810;55.848;37.368;2022-09-02T04:18:15;98684.44;;;8.41;74.02
44148;BME280;29810;55.848;37.368;2022-09-02T04:21:17;98682.87;;;8.37;74.50
44148;BME280;29810;55.848;37.368;2022-09-02T04:24:20;98694.12;;;8.85;74.55
44148;BME280;29810;55.848;37.368;2022-09-02T04:27:22;98707.28;;;8.81;74.89
44148;BME280;29810;55.848;37.368;2022-09-02T04:30:24;98698.34;;;8.66;75.74
44148;BME280;29810;55.848;37.368;2022-09-02T04:33:26;98696.69;;;8.63;76.25
44148;BME280;29810;55.848;37.368;2022-09-02T04:36:28;98702.63;;;8.67;75.48
44148;BME280;29810;55.848;37.368;2022-09-02T04:39:31;98692.47;;;9.06;75.26
44148;BME280;29810;55.848;37.368;2022-09-02T04:42:33;98699.81;;;8.95;74.85
44148;BME280;29810;55.848;37.368;2022-09-02T04:45:38;98707.66;;;8.71;76.18
44148;BME280;29810;55.848;37.368;2022-09-02T04:48:41;98712.31;;;8.38;78.88
44148;BME280;29810;55.848;37.368;2022-09-02T04:51:44;98708.00;;;8.11;79.96
44148;BME280;29810;55.848;37.368;2022-09-02T04:54:46;98655.59;;;7.76;81.27
44148;BME280;29810;55.848;37.368;2022-09-02T04:57:47;98715.97;;;8.07;81.62
44148;BME280;29810;55.848;37.368;2022-09-02T05:00:49;98694.19;;;8.11;82.06
44148;BME280;29810;55.848;37.368;2022-09-02T05:03:52;98688.69;;;8.44;80.49
44148;BME280;29810;55.848;37.368;2022-09-02T05:06:55;98725.22;;;8.65;79.80
44148;BME280;29810;55.848;37.368;2022-09-02T05:09:58;98708.22;;;8.56;79.74
44148;BME280;29810;55.848;37.368;2022-09-02T05:13:01;98725.47;;;8.82;79.08
44148;BME280;29810;55.848;37.368;2022-09-02T05:16:04;98726.69;;;8.95;78.70
44148;BME280;29810;55.848;37.368;2022-09-02T05:19:07;98735.94;;;9.03;77.34
44148;BME280;29810;55.848;37.368;2022-09-02T05:22:10;98738.13;;;8.91;77.56
44148;BME280;29810;55.848;37.368;2022-09-02T05:25:12;98710.66;;;8.60;77.93
44148;BME280;29810;55.848;37.368;2022-09-02T05:28:14;98731.09;;;8.70;78.12
44148;BME280;29810;55.848;37.368;2022-09-02T05:31:18;98735.63;;;8.65;78.02
44148;BME280;29810;55.848;37.368;2022-09-02T05:34:22;98730.34;;;8.66;77.80
44148;BME280;29810;55.848;37.368;2022-09-02T05:37:25;98742.31;;;8.72;78.24
44148;BME280;29810;55.848;37.368;2022-09-02T05:40:26;98754.00;;;8.84;77.03
44148;BME280;29810;55.848;37.368;2022-09-02T05:43:28;98750.72;;;8.78;77.55
44148;BME280;29810;55.848;37.368;2022-09-02T05:46:30;98688.06;;;8.13;78.39
44148;BME280;29810;55.848;37.368;2022-09-02T05:49:32;98752.56;;;8.51;78.62
44148;BME280;29810;55.848;37.368;2022-09-02T05:52:34;98751.78;;;8.73;77.56
44148;BME280;29810;55.848;37.368;2022-09-02T05:55:36;98753.88;;;8.87;76.97
44148;BME280;29810;55.848;37.368;2022-09-02T05:58:38;98759.09;;;9.09;76.36
44148;BME280;29810;55.848;37.368;2022-09-02T06:01:40;98766.59;;;8.94;75.87
44148;BME280;29810;55.848;37.368;2022-09-02T06:04:45;98754.56;;;8.68;75.79
44148;BME280;29810;55.848;37.368;2022-09-02T06:07:47;98765.75;;;8.94;75.61
44148;BME280;29810;55.848;37.368;2022-09-02T06:10:50;98766.75;;;9.14;75.14
44148;BME280;29810;55.848;37.368;2022-09-02T06:13:52;98761.31;;;9.42;74.47
44148;BME280;29810;55.848;37.368;2022-09-02T06:16:57;98758.22;;;9.54;73.58
44148;BME280;29810;55.848;37.368;2022-09-02T06:19:59;98757.56;;;9.71;72.71
44148;BME280;29810;55.848;37.368;2022-09-02T06:23:01;98782.37;;;9.80;71.99
44148;BME280;29810;55.848;37.368;2022-09-02T06:26:06;98769.75;;;9.91;71.78
44148;BME280;29810;55.848;37.368;2022-09-02T06:29:09;98772.41;;;9.90;71.38
44148;BME280;29810;55.848;37.368;2022-09-02T06:32:11;98785.22;;;9.74;71.20
44148;BME280;29810;55.848;37.368;2022-09-02T06:35:13;98745.63;;;9.66;71.20
44148;BME280;29810;55.848;37.368;2022-09-02T06:38:15;98729.59;;;9.54;70.64
44148;BME280;29810;55.848;37.368;2022-09-02T06:41:20;98791.75;;;10.05;69.84
44148;BME280;29810;55.848;37.368;2022-09-02T06:44:25;98808.84;;;10.12;70.44
44148;BME280;29810;55.848;37.368;2022-09-02T06:47:26;98789.44;;;9.99;70.35
44148;BME280;29810;55.848;37.368;2022-09-02T06:50:28;98792.94;;;9.98;70.49
44148;BME280;29810;55.848;37.368;2022-09-02T06:53:30;98775.47;;;10.00;69.83
44148;BME280;29810;55.848;37.368;2022-09-02T06:56:32;98817.31;;;10.58;69.06
44148;BME280;29810;55.848;37.368;2022-09-02T06:59:34;98813.13;;;10.56;68.60
44148;BME280;29810;55.848;37.368;2022-09-02T07:02:36;98811.75;;;10.68;69.25
44148;BME280;29810;55.848;37.368;2022-09-02T07:05:39;98800.16;;;11.13;68.26
44148;BME280;29810;55.848;37.368;2022-09-02T07:08:42;98807.38;;;11.64;66.41
44148;BME280;29810;55.848;37.368;2022-09-02T07:11:46;98806.47;;;12.01;63.57
44148;BME280;29810;55.848;37.368;2022-09-02T07:14:49;98777.38;;;11.72;63.48
44148;BME280;29810;55.848;37.368;2022-09-02T07:17:53;98819.91;;;12.11;62.32
44148;BME280;29810;55.848;37.368;2022-09-02T07:20:55;98807.41;;;11.44;62.71
44148;BME280;29810;55.848;37.368;2022-09-02T07:23:57;98827.47;;;11.62;63.97
44148;BME280;29810;55.848;37.368;2022-09-02T07:27:01;98824.75;;;11.65;62.89
44148;BME280;29810;55.848;37.368;2022-09-02T07:30:15;98803.44;;;10.98;63.43
44148;BME280;29810;55.848;37.368;2022-09-02T07:33:17;98811.22;;;11.37;63.51
44148;BME280;29810;55.848;37.368;2022-09-02T07:36:20;98809.81;;;11.49;62.77
44148;BME280;29810;55.848;37.368;2022-09-02T07:39:23;98838.09;;;11.58;61.99
44148;BME280;29810;55.848;37.368;2022-09-02T07:42:24;98841.97;;;11.69;62.32
44148;BME280;29810;55.848;37.368;2022-09-02T07:45:26;98843.37;;;11.38;63.22
44148;BME280;29810;55.848;37.368;2022-09-02T07:48:29;98826.69;;;10.83;65.61
44148;BME280;29810;55.848;37.368;2022-09-02T07:51:32;98837.59;;;11.50;65.32
44148;BME280;29810;55.848;37.368;2022-09-02T07:54:34;98840.66;;;11.97;62.29
44148;BME280;29810;55.848;37.368;2022-09-02T07:57:36;98844.16;;;12.50;60.76
44148;BME280;29810;55.848;37.368;2022-09-02T08:00:38;98833.38;;;13.07;57.86
44148;BME280;29810;55.848;37.368;2022-09-02T08:03:43;98846.91;;;12.64;58.44
44148;BME280;29810;55.848;37.368;2022-09-02T08:06:45;98849.28;;;12.69;59.32
44148;BME280;29810;55.848;37.368;2022-09-02T08:09:47;98847.81;;;12.63;58.17
44148;BME280;29810;55.848;37.368;2022-09-02T08:12:48;98857.69;;;12.75;57.78
44148;BME280;29810;55.848;37.368;2022-09-02T08:15:51;98853.44;;;12.73;57.53
44148;BME280;29810;55.848;37.368;2022-09-02T08:18:53;98850.84;;;12.73;56.49
44148;BME280;29810;55.848;37.368;2022-09-02T08:22:01;98853.78;;;13.00;56.15
44148;BME280;29810;55.848;37.368;2022-09-02T08:25:03;98828.38;;;13.18;54.79
44148;BME280;29810;55.848;37.368;2022-09-02T08:28:06;98849.25;;;13.20;55.15
44148;BME280;29810;55.848;37.368;2022-09-02T08:31:07;98868.09;;;13.27;53.80
44148;BME280;29810;55.848;37.368;2022-09-02T08:34:09;98819.16;;;12.95;54.97
44148;BME280;29810;55.848;37.368;2022-09-02T08:37:10;98873.50;;;12.90;55.48
44148;BME280;29810;55.848;37.368;2022-09-02T08:40:21;98840.91;;;12.27;56.98
44148;BME280;29810;55.848;37.368;2022-09-02T08:43:33;98884.22;;;12.33;57.04
44148;BME280;29810;55.848;37.368;2022-09-02T08:46:40;98829.78;;;11.50;59.79
44148;BME280;29810;55.848;37.368;2022-09-02T08:49:50;98895.16;;;11.47;61.36
44148;BME280;29810;55.848;37.368;2022-09-02T08:55:58;98922.22;;;10.65;67.62
44148;BME280;29810;55.848;37.368;2022-09-02T08:59:03;98927.53;;;10.62;68.95
44148;BME280;29810;55.848;37.368;2022-09-02T09:02:22;98917.03;;;11.25;67.30
44148;BME280;29810;55.848;37.368;2022-09-02T09:05:37;98918.59;;;11.68;65.86
44148;BME280;29810;55.848;37.368;2022-09-02T09:08:59;98910.84;;;11.85;64.89
44148;BME280;29810;55.848;37.368;2022-09-02T09:18:39;98925.31;;;12.12;61.62
44148;BME280;29810;55.848;37.368;2022-09-02T09:21:42;98914.38;;;11.84;62.81
44148;BME280;29810;55.848;37.368;2022-09-02T09:24:45;98929.62;;;11.55;63.25
44148;BME280;29810;55.848;37.368;2022-09-02T09:27:47;98907.44;;;11.45;62.47
44148;BME280;29810;55.848;37.368;2022-09-02T09:30:49;98891.75;;;11.26;61.78
44148;BME280;29810;55.848;37.368;2022-09-02T09:33:55;98925.44;;;11.51;61.64
44148;BME280;29810;55.848;37.368;2022-09-02T09:36:57;98948.53;;;11.60;61.66
44148;BME280;29810;55.848;37.368;2022-09-02T09:43:18;98945.25;;;12.49;58.32
44148;BME280;29810;55.848;37.368;2022-09-02T09:46:28;98947.28;;;12.62;55.43
44148;BME280;29810;55.848;37.368;2022-09-02T09:49:32;98950.13;;;12.92;54.32
44148;BME280;29810;55.848;37.368;2022-09-02T09:52:34;98962.81;;;13.17;53.81
44148;BME280;29810;55.848;37.368;2022-09-02T09:55:49;98964.00;;;13.28;52.56
44148;BME280;29810;55.848;37.368;2022-09-02T09:58:51;98950.44;;;12.51;53.17
44148;BME280;29810;55.848;37.368;2022-09-02T10:01:53;98957.69;;;12.26;55.32
44148;BME280;29810;55.848;37.368;2022-09-02T10:05:15;98964.22;;;12.72;56.24
44148;BME280;29810;55.848;37.368;2022-09-02T10:08:22;98976.25;;;13.27;55.80
44148;BME280;29810;55.848;37.368;2022-09-02T10:11:29;98972.34;;;13.18;55.10
44148;BME280;29810;55.848;37.368;2022-09-02T10:14:37;98974.38;;;12.96;55.55
44148;BME280;29810;55.848;37.368;2022-09-02T10:24:07;98990.84;;;12.98;53.33
44148;BME280;29810;55.848;37.368;2022-09-02T10:27:15;98974.00;;;13.03;52.29
44148;BME280;29810;55.848;37.368;2022-09-02T10:30:21;98984.91;;;13.29;51.83
44148;BME280;29810;55.848;37.368;2022-09-02T10:40:14;98979.97;;;14.06;50.42
44148;BME280;29810;55.848;37.368;2022-09-02T10:47:09;98995.47;;;13.10;52.23
44148;BME280;29810;55.848;37.368;2022-09-02T10:50:22;99013.13;;;13.22;52.33
44148;BME280;29810;55.848;37.368;2022-09-02T10:56:57;99010.37;;;13.77;50.41
44148;BME280;29810;55.848;37.368;2022-09-02T11:00:13;99017.22;;;13.46;50.62
44148;BME280;29810;55.848;37.368;2022-09-02T11:03:28;99008.66;;;13.60;50.75
44148;BME280;29810;55.848;37.368;2022-09-02T11:06:36;99007.50;;;13.30;50.62
44148;BME280;29810;55.848;37.368;2022-09-02T11:09:43;99046.03;;;13.11;51.53
44148;BME280;29810;55.848;37.368;2022-09-02T11:13:01;99033.22;;;12.87;50.68
44148;BME280;29810;55.848;37.368;2022-09-02T11:16:13;99032.69;;;12.63;50.82
44148;BME280;29810;55.848;37.368;2022-09-02T11:22:58;99034.66;;;12.57;51.86
44148;BME280;29810;55.848;37.368;2022-09-02T11:26:19;99034.63;;;13.12;51.93
44148;BME280;29810;55.848;37.368;2022-09-02T11:30:03;99035.88;;;13.22;50.74
44148;BME280;29810;55.848;37.368;2022-09-02T11:33:12;99046.50;;;13.54;50.54
44148;BME280;29810;55.848;37.368;2022-09-02T11:36:16;99054.88;;;13.08;51.76
44148;BME280;29810;55.848;37.368;2022-09-02T11:39:31;99058.28;;;13.10;51.56
44148;BME280;29810;55.848;37.368;2022-09-02T11:55:41;99056.22;;;12.80;52.76
44148;BME280;29810;55.848;37.368;2022-09-02T11:58:49;99071.72;;;12.48;52.75
44148;BME280;29810;55.848;37.368;2022-09-02T12:02:07;99098.81;;;10.38;63.93
44148;BME280;29810;55.848;37.368;2022-09-02T12:11:39;99092.31;;;10.24;69.84
44148;BME280;29810;55.848;37.368;2022-09-02T12:21:08;99091.91;;;11.03;63.25
44148;BME280;29810;55.848;37.368;2022-09-02T12:24:19;99095.72;;;11.37;60.98
44148;BME280;29810;55.848;37.368;2022-09-02T12:27:41;99086.37;;;11.32;60.69
44148;BME280;29810;55.848;37.368;2022-09-02T12:31:08;99090.12;;;11.86;60.52
44148;BME280;29810;55.848;37.368;2022-09-02T12:44:22;99097.97;;;12.45;54.69
44148;BME280;29810;55.848;37.368;2022-09-02T12:53:49;99158.34;;;10.49;70.08
44148;BME280;29810;55.848;37.368;2022-09-02T12:56:51;99162.66;;;10.24;71.71
44148;BME280;29810;55.848;37.368;2022-09-02T12:59:57;99137.81;;;10.16;69.52
44148;BME280;29810;55.848;37.368;2022-09-02T13:31:07;99177.03;;;11.28;63.41
44148;BME280;29810;55.848;37.368;2022-09-02T13:34:12;99172.03;;;11.65;62.06
44148;BME280;29810;55.848;37.368;2022-09-02T13:40:34;99178.59;;;11.96;60.31
44148;BME280;29810;55.848;37.368;2022-09-02T13:43:36;99179.38;;;11.98;59.19
44148;BME280;29810;55.848;37.368;2022-09-02T13:46:51;99180.50;;;11.90;59.02
44148;BME280;29810;55.848;37.368;2022-09-02T13:49:53;99190.63;;;12.00;58.05
44148;BME280;29810;55.848;37.368;2022-09-02T13:53:36;99162.31;;;11.89;57.99
44148;BME280;29810;55.848;37.368;2022-09-02T13:56:39;99186.31;;;11.99;58.18
44148;BME280;29810;55.848;37.368;2022-09-02T13:59:47;99179.94;;;11.84;57.63
44148;BME280;29810;55.848;37.368;2022-09-02T14:03:04;99193.72;;;11.87;58.50
44148;BME280;29810;55.848;37.368;2022-09-02T14:06:07;99199.06;;;11.64;60.06
44148;BME280;29810;55.848;37.368;2022-09-02T14:09:17;99199.13;;;11.62;60.09
44148;BME280;29810;55.848;37.368;2022-09-02T14:12:21;99210.94;;;11.71;59.88
44148;BME280;29810;55.848;37.368;2022-09-02T14:15:28;99206.66;;;11.70;60.06
44148;BME280;29810;55.848;37.368;2022-09-02T14:18:30;99192.84;;;11.46;60.70
44148;BME280;29810;55.848;37.368;2022-09-02T14:21:31;99176.53;;;11.18;60.68
44148;BME280;29810;55.848;37.368;2022-09-02T14:24:39;99202.31;;;11.26;60.95
44148;BME280;29810;55.848;37.368;2022-09-02T14:27:51;99200.97;;;11.16;62.10
44148;BME280;29810;55.848;37.368;2022-09-02T14:31:05;99211.31;;;10.97;62.61
44148;BME280;29810;55.848;37.368;2022-09-02T14:34:33;99208.75;;;11.17;62.78
44148;BME280;29810;55.848;37.368;2022-09-02T14:37:48;99211.38;;;11.60;61.88
44148;BME280;29810;55.848;37.368;2022-09-02T14:41:01;99212.25;;;11.81;61.64
44148;BME280;29810;55.848;37.368;2022-09-02T14:44:25;99215.47;;;11.67;60.39
44148;BME280;29810;55.848;37.368;2022-09-02T14:47:36;99138.66;;;11.08;60.58
44148;BME280;29810;55.848;37.368;2022-09-02T14:50:39;99218.63;;;11.31;61.36
44148;BME280;29810;55.848;37.368;2022-09-02T14:53:42;99193.03;;;10.97;62.98
44148;BME280;29810;55.848;37.368;2022-09-02T14:56:51;99202.09;;;10.64;63.38
44148;BME280;29810;55.848;37.368;2022-09-02T14:59:57;99226.25;;;10.19;68.08
44148;BME280;29810;55.848;37.368;2022-09-02T15:02:59;99220.00;;;9.99;69.84
44148;BME280;29810;55.848;37.368;2022-09-02T15:06:01;99233.41;;;10.39;69.25
44148;BME280;29810;55.848;37.368;2022-09-02T15:09:03;99229.28;;;10.32;70.06
44148;BME280;29810;55.848;37.368;2022-09-02T15:12:04;99234.81;;;10.22;70.58
44148;BME280;29810;55.848;37.368;2022-09-02T15:15:06;99170.59;;;9.71;70.81
44148;BME280;29810;55.848;37.368;2022-09-02T15:18:08;99211.53;;;9.92;71.22
44148;BME280;29810;55.848;37.368;2022-09-02T15:21:10;99240.72;;;10.02;71.03
44148;BME280;29810;55.848;37.368;2022-09-02T15:24:12;99240.69;;;10.04;71.12
44148;BME280;29810;55.848;37.368;2022-09-02T15:27:14;99239.72;;;10.06;71.31
44148;BME280;29810;55.848;37.368;2022-09-02T15:30:17;99247.16;;;10.17;70.82
44148;BME280;29810;55.848;37.368;2022-09-02T15:33:18;99233.31;;;10.15;70.55
44148;BME280;29810;55.848;37.368;2022-09-02T15:36:20;99236.06;;;10.37;69.75
44148;BME280;29810;55.848;37.368;2022-09-02T15:39:24;99229.16;;;10.35;69.20
44148;BME280;29810;55.848;37.368;2022-09-02T15:42:26;99245.44;;;10.43;69.22
44148;BME280;29810;55.848;37.368;2022-09-02T15:45:27;99246.41;;;10.39;69.54
44148;BME280;29810;55.848;37.368;2022-09-02T15:48:31;99253.00;;;10.24;69.87
44148;BME280;29810;55.848;37.368;2022-09-02T15:51:33;99258.38;;;10.19;70.60
44148;BME280;29810;55.848;37.368;2022-09-02T15:54:35;99255.69;;;9.97;71.19
44148;BME280;29810;55.848;37.368;2022-09-02T15:57:37;99248.13;;;9.89;71.56
44148;BME280;29810;55.848;37.368;2022-09-02T16:00:38;99260.38;;;9.86;71.74
44148;BME280;29810;55.848;37.368;2022-09-02T16:03:42;99265.00;;;9.77;71.93
44148;BME280;29810;55.848;37.368;2022-09-02T16:06:45;99265.66;;;9.84;71.89
44148;BME280;29810;55.848;37.368;2022-09-02T16:09:48;99268.69;;;9.97;71.28
44148;BME280;29810;55.848;37.368;2022-09-02T16:12:49;99274.22;;;10.13;71.07
44148;BME280;29810;55.848;37.368;2022-09-02T16:15:59;99272.22;;;10.21;70.56
44148;BME280;29810;55.848;37.368;2022-09-02T16:19:01;99265.41;;;10.17;71.13
44148;BME280;29810;55.848;37.368;2022-09-02T16:22:04;99280.41;;;10.10;70.95
44148;BME280;29810;55.848;37.368;2022-09-02T16:25:08;99279.84;;;10.01;71.06
44148;BME280;29810;55.848;37.368;2022-09-02T16:28:11;99279.94;;;9.98;71.11
44148;BME280;29810;55.848;37.368;2022-09-02T16:31:17;99282.66;;;9.94;71.09
44148;BME280;29810;55.848;37.368;2022-09-02T16:34:19;99298.28;;;9.94;71.05
44148;BME280;29810;55.848;37.368;2022-09-02T16:37:21;99290.56;;;9.91;70.99
44148;BME280;29810;55.848;37.368;2022-09-02T16:40:23;99296.47;;;9.97;71.13
44148;BME280;29810;55.848;37.368;2022-09-02T16:43:29;99295.47;;;10.01;70.97
44148;BME280;29810;55.848;37.368;2022-09-02T16:46:48;99292.72;;;10.05;70.46
44148;BME280;29810;55.848;37.368;2022-09-02T16:49:50;99298.72;;;10.07;70.41
44148;BME280;29810;55.848;37.368;2022-09-02T16:52:52;99307.41;;;10.08;70.34
44148;BME280;29810;55.848;37.368;2022-09-02T16:55:54;99310.09;;;10.05;70.00
44148;BME280;29810;55.848;37.368;2022-09-02T16:59:01;99309.13;;;10.07;70.62
44148;BME280;29810;55.848;37.368;2022-09-02T17:02:04;99311.97;;;10.01;70.73
44148;BME280;29810;55.848;37.368;2022-09-02T17:05:09;99320.03;;;9.93;70.31
44148;BME280;29810;55.848;37.368;2022-09-02T17:08:17;99320.22;;;9.87;70.45
44148;BME280;29810;55.848;37.368;2022-09-02T17:11:23;99316.78;;;9.85;70.42
44148;BME280;29810;55.848;37.368;2022-09-02T17:14:24;99329.75;;;9.88;70.65
44148;BME280;29810;55.848;37.368;2022-09-02T17:17:26;99320.28;;;9.86;70.66
44148;BME280;29810;55.848;37.368;2022-09-02T17:20:28;99325.44;;;9.87;70.88
44148;BME280;29810;55.848;37.368;2022-09-02T17:23:29;99324.47;;;9.90;70.47
44148;BME280;29810;55.848;37.368;2022-09-02T17:26:34;99332.22;;;9.91;70.71
44148;BME280;29810;55.848;37.368;2022-09-02T17:29:36;99332.28;;;9.90;70.31
44148;BME280;29810;55.848;37.368;2022-09-02T17:32:40;99338.31;;;9.92;70.17
44148;BME280;29810;55.848;37.368;2022-09-02T17:35:42;99344.25;;;9.95;69.95
44148;BME280;29810;55.848;37.368;2022-09-02T17:38:43;99333.06;;;9.93;69.81
44148;BME280;29810;55.848;37.368;2022-09-02T17:41:48;99343.22;;;10.01;69.60
44148;BME280;29810;55.848;37.368;2022-09-02T17:44:56;99346.78;;;9.99;69.63
44148;BME280;29810;55.848;37.368;2022-09-02T17:47:58;99345.97;;;9.97;68.98
44148;BME280;29810;55.848;37.368;2022-09-02T17:51:01;99348.72;;;9.92;68.90
44148;BME280;29810;55.848;37.368;2022-09-02T17:54:03;99350.66;;;9.85;67.94
44148;BME280;29810;55.848;37.368;2022-09-02T18:00:30;99357.56;;;9.86;67.46
44148;BME280;29810;55.848;37.368;2022-09-02T18:03:50;99350.94;;;9.77;67.34
44148;BME280;29810;55.848;37.368;2022-09-02T18:07:03;99356.38;;;9.70;67.59